Time;durP1;ratioP1;P1;durP2;ratioP2;P2;SDS_P1;SDS_P2;PMS_P1;PMS_P2;Temp;Humidity;BMP_temperature;BMP_pressure;BME280_temperature;BME280_humidity;BME280_pressure;Samples;Min_cycle;Max_cycle;Signal;HPM_P1;HPM_P2
2024/01/16 00:01:24;;;;;;;15.60;1.58;;;;;;;;;;5028676;28;20494;-79
2024/01/16 00:03:50;;;;;;;8.50;1.45;;;;;;;;;;5033571;28;20036;-79
2024/01/16 00:06:16;;;;;;;14.35;1.60;;;;;;;;;;5040868;28;20756;-79
2024/01/16 00:08:43;;;;;;;13.00;1.45;;;;;;;;;;5027323;28;20038;-78
2024/01/16 00:11:12;;;;;;;11.10;1.98;;;;;;;;;;5026535;28;20042;-78
2024/01/16 00:13:38;;;;;;;12.75;1.55;;;;;;;;;;5029745;28;20093;-79
2024/01/16 00:16:04;;;;;;;12.00;1.83;;;;;;;;;;5030053;28;20041;-79
2024/01/16 00:18:30;;;;;;;12.85;1.50;;;;;;;;;;5032347;28;20407;-78
2024/01/16 00:20:56;;;;;;;14.45;1.42;;;;;;;;;;5026670;28;20057;-79
2024/01/16 00:23:22;;;;;;;15.32;1.50;;;;;;;;;;5030132;28;20434;-78
2024/01/16 00:25:48;;;;;;;11.10;1.55;;;;;;;;;;5032344;28;20054;-78
2024/01/16 00:28:14;;;;;;;12.82;1.80;;;;;;;;;;5026148;28;20100;-79
2024/01/16 00:30:41;;;;;;;10.85;1.30;;;;;;;;;;5026399;28;20384;-79
2024/01/16 00:33:07;;;;;;;7.75;1.48;;;;;;;;;;5034958;28;20052;-79
2024/01/16 00:35:33;;;;;;;9.85;1.48;;;;;;;;;;5033794;28;20045;-79
2024/01/16 00:38:00;;;;;;;9.98;2.00;;;;;;;;;;5053777;28;20503;-79
2024/01/16 00:40:26;;;;;;;14.55;1.50;;;;;;;;;;5054858;28;20049;-79
2024/01/16 00:42:52;;;;;;;9.00;1.88;;;;;;;;;;5054500;28;20052;-79
2024/01/16 00:45:18;;;;;;;9.57;1.50;;;;;;;;;;5052994;28;20044;-79
2024/01/16 00:47:44;;;;;;;11.50;1.63;;;;;;;;;;5041697;28;20036;-79
2024/01/16 00:50:11;;;;;;;17.25;1.80;;;;;;;;;;5053808;28;20098;-79
2024/01/16 00:52:37;;;;;;;11.52;1.85;;;;;;;;;;5052117;28;20041;-79
2024/01/16 00:55:03;;;;;;;12.15;1.60;;;;;;;;;;5033373;28;20038;-79
2024/01/16 00:57:29;;;;;;;11.05;1.60;;;;;;;;;;5035288;28;20037;-79
2024/01/16 00:59:55;;;;;;;13.63;2.17;;;;;;;;;;5051580;28;20102;-79
2024/01/16 01:02:21;;;;;;;10.27;1.73;;;;;;;;;;5009741;28;20046;-79
2024/01/16 01:04:47;;;;;;;9.18;1.73;;;;;;;;;;5031990;28;20049;-79
2024/01/16 01:07:16;;;;;;;9.35;1.90;;;;;;;;;;5031711;28;20049;-79
2024/01/16 01:09:43;;;;;;;12.55;1.40;;;;;;;;;;5036670;28;20048;-79
2024/01/16 01:12:09;;;;;;;9.00;1.20;;;;;;;;;;5032755;28;20056;-78
2024/01/16 01:14:35;;;;;;;12.32;1.98;;;;;;;;;;5035910;28;20057;-78
2024/01/16 01:17:09;;;;;;;11.80;1.48;;;;;;;;;;5138305;27;20382;-79
2024/01/16 01:19:35;;;;;;;11.77;2.05;;;;;;;;;;5113150;28;20493;-79
2024/01/16 01:22:01;;;;;;;9.88;1.60;;;;;;;;;;5125479;28;20055;-79
2024/01/16 01:24:27;;;;;;;14.82;1.67;;;;;;;;;;5124166;28;20054;-79
2024/01/16 01:26:53;;;;;;;11.35;1.40;;;;;;;;;;5116055;28;20043;-78
2024/01/16 01:29:19;;;;;;;14.30;1.73;;;;;;;;;;5124927;28;20097;-79
2024/01/16 01:31:48;;;;;;;9.45;1.20;;;;;;;;;;5131064;27;20545;-79
2024/01/16 01:34:15;;;;;;;10.60;1.67;;;;;;;;;;5122122;28;20392;-78
2024/01/16 01:36:41;;;;;;;12.23;1.52;;;;;;;;;;5129949;28;20046;-79
2024/01/16 01:39:07;;;;;;;10.50;1.50;;;;;;;;;;5119188;28;20062;-79
2024/01/16 01:41:33;;;;;;;12.10;1.67;;;;;;;;;;5130419;28;20039;-79
2024/01/16 01:43:59;;;;;;;8.45;1.55;;;;;;;;;;5127160;28;20036;-79
2024/01/16 01:46:25;;;;;;;7.65;1.40;;;;;;;;;;5123261;28;20054;-78
2024/01/16 01:48:51;;;;;;;11.05;1.38;;;;;;;;;;5115032;28;20043;-79
2024/01/16 01:51:19;;;;;;;10.52;1.63;;;;;;;;;;5131097;28;20054;-79
2024/01/16 01:53:45;;;;;;;8.10;1.25;;;;;;;;;;5120551;28;20135;-79
2024/01/16 01:56:15;;;;;;;11.02;1.13;;;;;;;;;;5120835;28;20039;-79
2024/01/16 01:58:43;;;;;;;13.82;1.55;;;;;;;;;;5105719;28;20073;-80
2024/01/16 02:01:10;;;;;;;7.43;1.13;;;;;;;;;;5116621;28;20043;-79
2024/01/16 02:03:39;;;;;;;9.85;1.60;;;;;;;;;;5126871;28;20469;-80
2024/01/16 02:06:07;;;;;;;8.98;0.98;;;;;;;;;;5114741;28;20040;-79
2024/01/16 02:08:33;;;;;;;9.93;1.25;;;;;;;;;;5119240;28;20044;-80
2024/01/16 02:10:59;;;;;;;15.73;2.20;;;;;;;;;;5124428;28;20047;-79
2024/01/16 02:13:25;;;;;;;9.80;1.13;;;;;;;;;;5126233;28;20509;-79
2024/01/16 02:15:51;;;;;;;10.07;1.08;;;;;;;;;;5120893;28;20066;-79
2024/01/16 02:18:18;;;;;;;5.30;1.02;;;;;;;;;;5130168;28;20556;-79
2024/01/16 02:20:44;;;;;;;9.02;1.33;;;;;;;;;;5113790;27;20040;-79
2024/01/16 02:23:10;;;;;;;7.72;1.13;;;;;;;;;;5114121;28;20042;-79
2024/01/16 02:25:37;;;;;;;9.13;1.02;;;;;;;;;;5125987;28;20096;-79
2024/01/16 02:28:03;;;;;;;10.23;1.30;;;;;;;;;;5099279;28;20409;-78
2024/01/16 02:30:29;;;;;;;7.88;0.80;;;;;;;;;;5104615;28;20048;-78
2024/01/16 02:32:55;;;;;;;9.82;0.82;;;;;;;;;;5096122;28;20358;-78
2024/01/16 02:35:22;;;;;;;13.45;1.00;;;;;;;;;;5096546;28;20040;-79
2024/01/16 02:37:48;;;;;;;5.28;0.80;;;;;;;;;;5096146;28;20052;-79
2024/01/16 02:40:14;;;;;;;8.40;0.90;;;;;;;;;;5078277;28;20048;-79
2024/01/16 02:42:40;;;;;;;7.07;0.98;;;;;;;;;;5096016;28;20490;-79
2024/01/16 02:45:06;;;;;;;8.55;0.80;;;;;;;;;;5094703;28;20055;-79
2024/01/16 02:47:33;;;;;;;7.60;0.80;;;;;;;;;;5095965;28;20055;-79
2024/01/16 02:49:59;;;;;;;5.22;0.80;;;;;;;;;;5111081;28;20063;-79
2024/01/16 02:52:25;;;;;;;9.60;0.77;;;;;;;;;;5097851;28;20118;-79
2024/01/16 02:54:51;;;;;;;10.88;1.30;;;;;;;;;;5105733;28;20036;-79
2024/01/16 02:57:18;;;;;;;12.18;1.08;;;;;;;;;;5107300;28;20044;-79
2024/01/16 02:59:47;;;;;;;8.35;0.98;;;;;;;;;;5105051;28;20381;-79
2024/01/16 03:02:13;;;;;;;7.80;1.42;;;;;;;;;;5113590;28;20497;-79
2024/01/16 03:04:39;;;;;;;10.98;0.95;;;;;;;;;;5110286;28;20130;-79
2024/01/16 03:07:06;;;;;;;5.10;1.17;;;;;;;;;;5109571;28;20055;-80
2024/01/16 03:09:32;;;;;;;11.80;1.27;;;;;;;;;;5106314;28;20039;-79
2024/01/16 03:11:58;;;;;;;8.75;0.90;;;;;;;;;;5115823;28;20048;-79
2024/01/16 03:14:24;;;;;;;10.80;1.50;;;;;;;;;;5114824;28;20047;-80
2024/01/16 03:16:50;;;;;;;10.23;1.02;;;;;;;;;;5097484;28;20101;-79
2024/01/16 03:19:16;;;;;;;9.68;1.25;;;;;;;;;;5110622;28;20051;-79
2024/01/16 03:21:43;;;;;;;10.82;1.23;;;;;;;;;;5107103;28;20397;-79
2024/01/16 03:24:10;;;;;;;12.07;0.90;;;;;;;;;;5108068;28;20115;-80
2024/01/16 03:26:38;;;;;;;12.40;0.95;;;;;;;;;;5114394;28;20039;-79
2024/01/16 03:29:04;;;;;;;12.57;1.60;;;;;;;;;;5109183;28;20118;-79
2024/01/16 03:31:30;;;;;;;6.95;1.10;;;;;;;;;;5101685;28;20048;-79
2024/01/16 03:33:56;;;;;;;8.65;1.13;;;;;;;;;;5102242;28;20412;-79
2024/01/16 03:36:23;;;;;;;10.38;1.23;;;;;;;;;;5108150;28;20046;-79
2024/01/16 03:38:49;;;;;;;9.75;1.52;;;;;;;;;;5104119;28;20046;-79
2024/01/16 03:41:15;;;;;;;7.95;1.10;;;;;;;;;;5101427;28;20409;-79
2024/01/16 03:43:41;;;;;;;8.15;1.25;;;;;;;;;;5114722;28;20050;-79
2024/01/16 03:46:07;;;;;;;6.43;1.10;;;;;;;;;;5115035;28;20051;-79
2024/01/16 03:48:33;;;;;;;9.80;1.25;;;;;;;;;;5103361;28;20051;-79
2024/01/16 03:51:00;;;;;;;10.00;1.25;;;;;;;;;;5113130;28;20413;-79
2024/01/16 03:53:26;;;;;;;7.70;0.88;;;;;;;;;;5103134;28;20044;-79
2024/01/16 03:55:52;;;;;;;6.65;0.77;;;;;;;;;;5115168;28;20043;-79
2024/01/16 03:58:18;;;;;;;7.32;0.85;;;;;;;;;;5108767;28;20047;-79
2024/01/16 04:00:44;;;;;;;10.73;1.17;;;;;;;;;;5102275;28;20044;-80
2024/01/16 04:03:11;;;;;;;7.93;1.17;;;;;;;;;;5107785;28;20382;-80
2024/01/16 04:05:37;;;;;;;9.35;1.20;;;;;;;;;;5112092;28;20044;-79
2024/01/16 04:08:04;;;;;;;11.40;1.23;;;;;;;;;;5108705;28;20059;-79
2024/01/16 04:10:30;;;;;;;9.63;1.20;;;;;;;;;;5104652;28;20048;-80
2024/01/16 04:12:56;;;;;;;7.07;0.90;;;;;;;;;;5098497;28;20044;-79
2024/01/16 04:15:22;;;;;;;10.00;1.08;;;;;;;;;;5098391;28;20051;-79
2024/01/16 04:17:48;;;;;;;11.95;1.83;;;;;;;;;;5099867;28;20048;-79
2024/01/16 04:20:14;;;;;;;13.57;2.83;;;;;;;;;;5103060;28;20043;-79
2024/01/16 04:22:40;;;;;;;11.88;2.50;;;;;;;;;;5113653;28;20078;-79
2024/01/16 04:25:06;;;;;;;23.67;6.22;;;;;;;;;;5109090;28;20043;-79
2024/01/16 04:27:33;;;;;;;26.95;6.43;;;;;;;;;;5094017;28;20131;-80
2024/01/16 04:29:59;;;;;;;12.65;3.25;;;;;;;;;;5095712;28;20517;-79
2024/01/16 04:32:25;;;;;;;18.92;4.38;;;;;;;;;;5114247;28;20055;-79
2024/01/16 04:34:51;;;;;;;16.30;4.55;;;;;;;;;;5114542;28;20048;-79
2024/01/16 04:37:17;;;;;;;17.08;4.13;;;;;;;;;;5115958;28;20108;-79
2024/01/16 04:39:43;;;;;;;9.77;1.73;;;;;;;;;;5116188;28;20040;-80
2024/01/16 04:42:09;;;;;;;12.20;2.17;;;;;;;;;;5097934;28;20048;-79
2024/01/16 04:44:35;;;;;;;9.50;1.42;;;;;;;;;;5105372;28;20493;-80
2024/01/16 04:47:02;;;;;;;9.10;1.30;;;;;;;;;;5115836;28;20055;-80
2024/01/16 04:49:28;;;;;;;10.65;1.42;;;;;;;;;;5101480;28;20044;-80
2024/01/16 04:51:54;;;;;;;12.02;1.73;;;;;;;;;;5099452;28;20055;-80
2024/01/16 04:54:20;;;;;;;9.50;1.50;;;;;;;;;;5106317;28;20039;-79
2024/01/16 04:56:46;;;;;;;10.85;1.27;;;;;;;;;;5100116;28;20075;-79
2024/01/16 04:59:12;;;;;;;10.30;1.38;;;;;;;;;;5101640;28;20042;-79
2024/01/16 05:01:38;;;;;;;15.38;2.10;;;;;;;;;;5098819;28;20055;-79
2024/01/16 05:04:05;;;;;;;8.57;1.20;;;;;;;;;;5102769;28;20059;-77
2024/01/16 05:06:31;;;;;;;7.68;1.40;;;;;;;;;;5115293;28;20039;-78
2024/01/16 05:08:57;;;;;;;12.73;2.25;;;;;;;;;;5112329;28;20031;-78
2024/01/16 05:11:23;;;;;;;13.90;1.40;;;;;;;;;;5112089;28;20122;-78
2024/01/16 05:13:49;;;;;;;7.45;1.13;;;;;;;;;;5112809;28;20082;-78
2024/01/16 05:16:15;;;;;;;8.07;1.25;;;;;;;;;;5112309;28;20052;-78
2024/01/16 05:18:44;;;;;;;12.63;1.50;;;;;;;;;;5112332;28;20040;-78
2024/01/16 05:21:10;;;;;;;9.55;1.33;;;;;;;;;;5112432;28;20083;-79
2024/01/16 05:23:37;;;;;;;10.00;1.10;;;;;;;;;;5104016;28;20044;-78
2024/01/16 05:26:03;;;;;;;14.30;1.25;;;;;;;;;;5092719;28;20044;-78
2024/01/16 05:28:29;;;;;;;9.30;1.63;;;;;;;;;;5107461;28;20046;-78
2024/01/16 05:30:55;;;;;;;10.68;1.42;;;;;;;;;;5100712;28;20036;-78
2024/01/16 05:33:21;;;;;;;11.35;1.63;;;;;;;;;;5104834;28;20047;-78
2024/01/16 05:35:47;;;;;;;12.63;1.67;;;;;;;;;;5112195;28;20040;-78
2024/01/16 05:38:13;;;;;;;9.05;1.42;;;;;;;;;;5113444;28;20040;-78
2024/01/16 05:40:39;;;;;;;15.90;1.63;;;;;;;;;;5112538;28;20463;-78
2024/01/16 05:43:06;;;;;;;10.27;1.73;;;;;;;;;;5107636;28;20048;-79
2024/01/16 05:45:32;;;;;;;10.48;1.30;;;;;;;;;;5094940;28;20047;-78
2024/01/16 05:47:58;;;;;;;10.70;1.38;;;;;;;;;;5109982;28;20051;-78
2024/01/16 05:50:24;;;;;;;12.07;1.40;;;;;;;;;;5105651;28;20062;-79
2024/01/16 05:52:50;;;;;;;9.82;1.42;;;;;;;;;;5108921;28;20040;-78
2024/01/16 05:55:16;;;;;;;10.82;2.08;;;;;;;;;;5102863;28;20131;-79
2024/01/16 05:57:43;;;;;;;14.23;2.42;;;;;;;;;;5100691;28;20047;-78
2024/01/16 06:00:09;;;;;;;11.35;2.17;;;;;;;;;;5105456;28;20071;-78
2024/01/16 06:02:35;;;;;;;17.35;3.20;;;;;;;;;;5112407;28;20043;-79
2024/01/16 06:05:02;;;;;;;13.93;2.00;;;;;;;;;;5114837;28;20059;-78
2024/01/16 06:07:28;;;;;;;22.92;4.72;;;;;;;;;;5115390;28;20480;-78
2024/01/16 06:09:54;;;;;;;16.67;3.20;;;;;;;;;;5115913;28;20044;-78
2024/01/16 06:12:21;;;;;;;11.35;1.88;;;;;;;;;;5111847;28;20512;-78
2024/01/16 06:14:47;;;;;;;10.38;2.28;;;;;;;;;;5114772;28;20496;-78
2024/01/16 06:17:13;;;;;;;11.43;2.35;;;;;;;;;;5116662;28;20055;-79
2024/01/16 06:19:39;;;;;;;10.52;2.83;;;;;;;;;;5115999;28;20072;-78
2024/01/16 06:22:05;;;;;;;14.27;1.98;;;;;;;;;;5099838;28;20136;-78
2024/01/16 06:24:36;;;;;;;12.60;2.33;;;;;;;;;;5108996;28;20046;-78
2024/01/16 06:27:03;;;;;;;10.68;1.80;;;;;;;;;;5102630;28;20036;-78
2024/01/16 06:29:29;;;;;;;13.68;2.60;;;;;;;;;;5110953;28;20483;-78
2024/01/16 06:31:55;;;;;;;15.98;2.70;;;;;;;;;;5096090;28;20044;-78
2024/01/16 06:34:22;;;;;;;11.60;2.00;;;;;;;;;;5095882;28;20044;-78
2024/01/16 06:36:48;;;;;;;13.77;2.25;;;;;;;;;;5095953;28;20054;-78
2024/01/16 06:39:14;;;;;;;8.85;1.98;;;;;;;;;;5096045;28;20044;-78
2024/01/16 06:41:41;;;;;;;12.15;3.13;;;;;;;;;;5095916;28;20101;-78
2024/01/16 06:44:07;;;;;;;15.13;5.25;;;;;;;;;;5104543;28;20050;-78
2024/01/16 06:46:34;;;;;;;15.57;3.70;;;;;;;;;;5102603;28;20122;-79
2024/01/16 06:49:00;;;;;;;9.32;2.58;;;;;;;;;;5113688;28;20460;-79
2024/01/16 06:51:26;;;;;;;11.57;2.95;;;;;;;;;;5115119;28;20043;-78
2024/01/16 06:53:53;;;;;;;13.57;3.38;;;;;;;;;;5102365;28;20438;-78
2024/01/16 06:56:19;;;;;;;12.85;3.17;;;;;;;;;;5104744;28;20397;-78
2024/01/16 06:58:45;;;;;;;9.98;2.42;;;;;;;;;;5108872;28;20051;-79
2024/01/16 07:01:11;;;;;;;10.18;2.47;;;;;;;;;;5110568;28;20055;-79
2024/01/16 07:03:37;;;;;;;9.85;2.10;;;;;;;;;;5109040;28;20035;-79
2024/01/16 07:06:03;;;;;;;11.25;3.00;;;;;;;;;;5107818;28;20047;-79
2024/01/16 07:08:29;;;;;;;10.25;2.35;;;;;;;;;;5099584;28;20046;-78
2024/01/16 07:10:56;;;;;;;11.63;2.65;;;;;;;;;;5109307;28;20035;-79
2024/01/16 07:13:22;;;;;;;12.02;2.45;;;;;;;;;;5102148;28;20047;-78
2024/01/16 07:15:48;;;;;;;13.48;2.28;;;;;;;;;;5106338;28;20420;-78
2024/01/16 07:18:14;;;;;;;9.15;2.42;;;;;;;;;;5107164;28;20039;-79
2024/01/16 07:20:41;;;;;;;11.80;2.92;;;;;;;;;;5102239;28;20036;-79
2024/01/16 07:23:07;;;;;;;14.80;3.53;;;;;;;;;;5105495;28;20066;-79
2024/01/16 07:25:33;;;;;;;10.15;2.97;;;;;;;;;;5094998;28;20115;-79
2024/01/16 07:27:59;;;;;;;12.05;2.78;;;;;;;;;;5111726;28;20046;-79
2024/01/16 07:30:25;;;;;;;8.50;2.67;;;;;;;;;;5105133;28;20047;-78
2024/01/16 07:32:51;;;;;;;8.70;3.08;;;;;;;;;;5109673;28;20480;-79
2024/01/16 07:35:17;;;;;;;13.05;3.33;;;;;;;;;;5110146;28;20046;-79
2024/01/16 07:37:43;;;;;;;9.85;3.30;;;;;;;;;;5098594;28;20056;-79
2024/01/16 07:40:10;;;;;;;15.90;3.80;;;;;;;;;;5104503;28;20040;-78
2024/01/16 07:42:36;;;;;;;11.23;3.63;;;;;;;;;;5099007;28;20042;-80
2024/01/16 07:45:06;;;;;;;15.70;3.88;;;;;;;;;;5108090;28;20055;-80
2024/01/16 07:47:33;;;;;;;11.98;3.90;;;;;;;;;;5107591;28;20055;-80
2024/01/16 07:49:59;;;;;;;13.18;3.78;;;;;;;;;;5086825;28;20062;-80
2024/01/16 07:52:25;;;;;;;16.02;4.07;;;;;;;;;;5113626;28;20055;-79
2024/01/16 07:54:51;;;;;;;14.43;4.25;;;;;;;;;;5101304;28;20039;-79
2024/01/16 07:57:17;;;;;;;12.32;4.50;;;;;;;;;;5112434;28;20047;-80
2024/01/16 07:59:44;;;;;;;14.82;4.00;;;;;;;;;;5121014;28;20046;-80
2024/01/16 08:02:10;;;;;;;12.40;3.75;;;;;;;;;;5120188;28;20047;-80
2024/01/16 08:04:36;;;;;;;10.63;4.07;;;;;;;;;;5120153;28;20109;-79
2024/01/16 08:07:02;;;;;;;14.15;3.72;;;;;;;;;;5100241;28;20036;-80
2024/01/16 08:09:28;;;;;;;12.23;3.92;;;;;;;;;;5116330;28;20043;-79
2024/01/16 08:11:54;;;;;;;10.25;3.95;;;;;;;;;;5118176;28;20407;-80
2024/01/16 08:14:20;;;;;;;12.07;4.05;;;;;;;;;;5119364;28;20058;-80
2024/01/16 08:16:46;;;;;;;13.48;4.20;;;;;;;;;;5120910;28;20451;-80
2024/01/16 08:19:12;;;;;;;13.00;3.90;;;;;;;;;;5119746;28;20044;-80
2024/01/16 08:21:38;;;;;;;15.52;4.68;;;;;;;;;;5125380;28;20044;-79
2024/01/16 08:24:05;;;;;;;16.52;4.90;;;;;;;;;;5101299;28;20043;-80
2024/01/16 08:26:31;;;;;;;12.45;4.80;;;;;;;;;;5118078;28;20123;-80
2024/01/16 08:28:58;;;;;;;11.93;4.50;;;;;;;;;;5117177;28;20108;-80
2024/01/16 08:31:24;;;;;;;12.25;4.45;;;;;;;;;;5112888;28;20040;-79
2024/01/16 08:33:50;;;;;;;8.82;4.03;;;;;;;;;;5101261;28;20044;-80
2024/01/16 08:36:16;;;;;;;11.00;4.65;;;;;;;;;;5111935;28;20133;-80
2024/01/16 08:38:42;;;;;;;11.55;4.20;;;;;;;;;;5106836;28;20078;-80
2024/01/16 08:41:08;;;;;;;10.32;4.22;;;;;;;;;;5101001;28;20100;-80
2024/01/16 08:43:35;;;;;;;11.18;4.28;;;;;;;;;;5099306;28;20434;-80
2024/01/16 08:46:01;;;;;;;10.82;4.40;;;;;;;;;;5100175;28;20052;-79
2024/01/16 08:48:27;;;;;;;13.20;4.55;;;;;;;;;;5099699;28;20048;-80
2024/01/16 08:50:56;;;;;;;13.32;4.85;;;;;;;;;;5099665;28;20052;-80
2024/01/16 08:53:23;;;;;;;10.63;4.35;;;;;;;;;;5099561;28;20047;-79
2024/01/16 08:55:49;;;;;;;12.77;4.97;;;;;;;;;;5115041;28;20376;-79
2024/01/16 08:58:15;;;;;;;8.40;4.15;;;;;;;;;;5117737;28;20040;-79
2024/01/16 09:00:41;;;;;;;11.43;4.55;;;;;;;;;;5115141;28;20508;-79
2024/01/16 09:03:07;;;;;;;14.40;5.65;;;;;;;;;;5099076;28;20503;-79
2024/01/16 09:05:38;;;;;;;10.68;5.22;;;;;;;;;;5106402;28;20078;-79
2024/01/16 09:08:04;;;;;;;14.57;5.97;;;;;;;;;;5113115;28;20062;-79
2024/01/16 09:10:30;;;;;;;14.90;5.80;;;;;;;;;;5105796;28;20052;-78
2024/01/16 09:12:56;;;;;;;13.27;6.38;;;;;;;;;;5098888;28;20059;-79
2024/01/16 09:15:22;;;;;;;12.77;6.57;;;;;;;;;;5113249;28;20055;-79
2024/01/16 09:17:48;;;;;;;14.52;7.50;;;;;;;;;;5117652;28;20433;-79
2024/01/16 09:20:14;;;;;;;12.48;6.28;;;;;;;;;;5113157;28;20046;-79
2024/01/16 09:22:41;;;;;;;12.50;5.15;;;;;;;;;;5096751;28;20048;-79
2024/01/16 09:25:07;;;;;;;11.88;5.57;;;;;;;;;;5101845;28;20372;-79
2024/01/16 09:27:33;;;;;;;13.68;5.30;;;;;;;;;;5104968;28;20051;-79
2024/01/16 09:29:59;;;;;;;10.70;5.20;;;;;;;;;;5097909;28;20040;-79
2024/01/16 09:32:25;;;;;;;11.85;5.57;;;;;;;;;;5110387;28;20120;-79
2024/01/16 09:34:51;;;;;;;11.25;5.22;;;;;;;;;;5094878;28;20093;-79
2024/01/16 09:37:18;;;;;;;10.55;4.85;;;;;;;;;;5096207;28;20469;-79
2024/01/16 09:39:44;;;;;;;14.10;5.18;;;;;;;;;;5107958;28;20047;-79
2024/01/16 09:42:10;;;;;;;11.63;4.90;;;;;;;;;;5121056;28;20448;-79
2024/01/16 09:44:37;;;;;;;16.85;7.93;;;;;;;;;;5105000;28;20040;-79
2024/01/16 09:47:07;;;;;;;27.27;15.13;;;;;;;;;;5106664;28;20052;-78
2024/01/16 09:49:33;;;;;;;23.35;12.07;;;;;;;;;;5099997;28;20482;-79
2024/01/16 09:52:01;;;;;;;18.05;7.50;;;;;;;;;;5120873;28;20047;-78
2024/01/16 09:54:27;;;;;;;16.15;7.95;;;;;;;;;;5120023;28;20051;-79
2024/01/16 09:56:54;;;;;;;15.80;7.20;;;;;;;;;;5118369;28;20506;-79
2024/01/16 09:59:21;;;;;;;15.25;7.10;;;;;;;;;;5106641;28;20072;-81
2024/01/16 10:01:49;;;;;;;15.50;7.50;;;;;;;;;;5117859;28;20063;-79
2024/01/16 10:04:15;;;;;;;15.68;8.40;;;;;;;;;;5105346;28;20054;-79
2024/01/16 10:06:42;;;;;;;14.48;7.45;;;;;;;;;;5101199;28;20059;-78
2024/01/16 10:09:08;;;;;;;16.27;8.63;;;;;;;;;;5116354;28;20095;-79
2024/01/16 10:11:38;;;;;;;13.68;7.38;;;;;;;;;;5119299;28;20055;-79
2024/01/16 10:14:04;;;;;;;15.60;8.93;;;;;;;;;;5110420;28;20093;-79
2024/01/16 10:16:49;;;;;;;17.52;7.63;;;;;;;;;;5102474;28;20084;-79
2024/01/16 10:19:15;;;;;;;17.83;8.02;;;;;;;;;;5111069;28;20044;-79
2024/01/16 10:21:41;;;;;;;11.00;6.55;;;;;;;;;;5109857;28;20060;-79
2024/01/16 10:24:13;;;;;;;15.93;7.97;;;;;;;;;;5104006;28;20040;-80
2024/01/16 10:26:39;;;;;;;15.48;8.02;;;;;;;;;;5123629;28;20044;-80
2024/01/16 10:29:05;;;;;;;14.57;8.32;;;;;;;;;;5123276;28;20069;-80
2024/01/16 10:31:31;;;;;;;14.18;7.45;;;;;;;;;;5123516;28;20047;-80
2024/01/16 10:33:57;;;;;;;14.90;7.65;;;;;;;;;;5124294;28;20062;-80
2024/01/16 10:36:25;;;;;;;17.60;7.22;;;;;;;;;;5110088;28;20366;-80
2024/01/16 10:38:57;;;;;;;15.35;6.97;;;;;;;;;;5103423;28;20465;-80
2024/01/16 10:41:27;;;;;;;15.93;7.28;;;;;;;;;;5104239;28;20052;-80
2024/01/16 10:44:11;;;;;;;14.95;8.18;;;;;;;;;;5101788;28;20076;-80
2024/01/16 10:46:37;;;;;;;11.20;7.32;;;;;;;;;;5103575;28;20070;-80
2024/01/16 10:49:04;;;;;;;18.88;9.70;;;;;;;;;;5103487;28;20097;-80
2024/01/16 10:51:30;;;;;;;12.70;7.85;;;;;;;;;;5119722;28;20384;-80
2024/01/16 10:53:59;;;;;;;15.38;7.03;;;;;;;;;;5124138;28;20468;-81
2024/01/16 10:56:27;;;;;;;13.90;7.53;;;;;;;;;;5110389;28;20131;-80
2024/01/16 10:59:03;;;;;;;17.33;6.88;;;;;;;;;;5103706;28;20402;-80
2024/01/16 11:01:29;;;;;;;13.93;6.30;;;;;;;;;;5122503;28;20051;-80
2024/01/16 11:03:57;;;;;;;11.75;4.80;;;;;;;;;;5115910;28;20044;-80
2024/01/16 11:06:24;;;;;;;12.25;6.00;;;;;;;;;;5102802;28;20036;-81
2024/01/16 11:08:51;;;;;;;11.07;5.45;;;;;;;;;;5111129;28;20047;-80
2024/01/16 11:11:17;;;;;;;12.52;4.78;;;;;;;;;;5106843;28;20523;-81
2024/01/16 11:13:44;;;;;;;8.95;4.03;;;;;;;;;;5118448;28;20515;-80
2024/01/16 11:16:13;;;;;;;9.23;3.80;;;;;;;;;;5111828;28;20371;-81
2024/01/16 11:18:39;;;;;;;10.13;3.60;;;;;;;;;;5103322;28;20078;-80
2024/01/16 11:21:07;;;;;;;9.20;3.25;;;;;;;;;;5103359;28;20047;-81
2024/01/16 11:23:34;;;;;;;7.40;3.03;;;;;;;;;;5106027;28;20059;-81
2024/01/16 11:26:01;;;;;;;10.70;3.60;;;;;;;;;;5123154;28;20059;-81
2024/01/16 11:28:30;;;;;;;12.60;3.13;;;;;;;;;;5122530;28;20088;-81
2024/01/16 11:30:56;;;;;;;9.13;2.53;;;;;;;;;;5122916;28;20122;-81
2024/01/16 11:33:32;;;;;;;9.00;2.38;;;;;;;;;;5122997;28;20054;-81
2024/01/16 11:35:58;;;;;;;7.35;2.10;;;;;;;;;;5122388;28;20093;-81
2024/01/16 11:38:26;;;;;;;6.00;2.05;;;;;;;;;;5123751;28;20043;-81
2024/01/16 11:40:55;;;;;;;9.93;2.10;;;;;;;;;;5124518;28;20508;-81
2024/01/16 11:43:34;;;;;;;6.70;2.05;;;;;;;;;;5123753;28;20055;-81
2024/01/16 11:46:01;;;;;;;8.13;1.67;;;;;;;;;;5123064;28;20085;-81
2024/01/16 11:48:27;;;;;;;10.30;2.00;;;;;;;;;;5123911;28;20122;-82
2024/01/16 11:50:54;;;;;;;7.28;1.50;;;;;;;;;;5121648;28;20127;-81
2024/01/16 11:53:32;;;;;;;7.45;1.90;;;;;;;;;;5121830;28;20043;-79
2024/01/16 11:56:21;;;;;;;5.90;1.50;;;;;;;;;;5116267;28;20374;-81
2024/01/16 11:58:50;;;;;;;8.45;2.10;;;;;;;;;;5114829;28;20052;-81
2024/01/16 12:01:18;;;;;;;6.07;1.38;;;;;;;;;;5099181;28;20048;-81
2024/01/16 12:03:44;;;;;;;8.93;1.45;;;;;;;;;;5101470;28;20441;-81
2024/01/16 12:06:10;;;;;;;10.45;1.60;;;;;;;;;;5100792;28;20052;-81
2024/01/16 12:08:37;;;;;;;9.80;1.50;;;;;;;;;;5106941;28;20075;-81
2024/01/16 12:11:03;;;;;;;7.20;1.27;;;;;;;;;;5118247;28;20080;-81
2024/01/16 12:13:30;;;;;;;8.43;1.38;;;;;;;;;;5100673;28;20048;-81
2024/01/16 12:16:00;;;;;;;8.65;1.40;;;;;;;;;;5099200;28;20088;-81
2024/01/16 12:18:26;;;;;;;8.43;1.63;;;;;;;;;;5100440;28;20066;-81
2024/01/16 12:20:53;;;;;;;8.68;1.70;;;;;;;;;;5106360;28;20050;-80
2024/01/16 12:23:20;;;;;;;5.65;1.45;;;;;;;;;;5109373;28;20051;-80
2024/01/16 12:25:46;;;;;;;12.00;2.88;;;;;;;;;;5100679;28;20051;-80
2024/01/16 12:28:17;;;;;;;12.82;3.53;;;;;;;;;;5100179;28;20088;-79
2024/01/16 12:30:49;;;;;;;12.45;3.85;;;;;;;;;;5118587;28;20127;-80
2024/01/16 12:33:16;;;;;;;10.30;4.07;;;;;;;;;;5120309;28;20053;-80
2024/01/16 12:35:44;;;;;;;12.98;3.90;;;;;;;;;;5112027;28;20052;-80
2024/01/16 12:38:11;;;;;;;11.95;2.58;;;;;;;;;;5102997;28;20072;-79
2024/01/16 12:40:40;;;;;;;9.23;2.50;;;;;;;;;;5101061;28;20036;-80
2024/01/16 12:43:08;;;;;;;12.85;2.60;;;;;;;;;;5109168;28;20043;-80
2024/01/16 12:45:35;;;;;;;10.70;2.90;;;;;;;;;;5107852;28;20052;-80
2024/01/16 12:48:03;;;;;;;10.07;2.50;;;;;;;;;;5101032;28;20048;-81
2024/01/16 12:50:30;;;;;;;14.27;3.15;;;;;;;;;;5107418;28;20035;-81
2024/01/16 12:53:02;;;;;;;13.90;3.90;;;;;;;;;;5117720;28;20040;-80
2024/01/16 12:55:28;;;;;;;9.95;3.65;;;;;;;;;;5102048;28;20142;-80
2024/01/16 12:58:12;;;;;;;11.77;4.20;;;;;;;;;;5103041;28;20036;-80
2024/01/16 13:00:41;;;;;;;10.57;4.80;;;;;;;;;;5117144;28;20128;-80
2024/01/16 13:03:09;;;;;;;11.35;4.68;;;;;;;;;;5119097;28;20050;-80
2024/01/16 13:05:35;;;;;;;10.55;5.07;;;;;;;;;;5120510;28;20055;-80
2024/01/16 13:08:04;;;;;;;13.60;5.90;;;;;;;;;;5120120;28;20068;-80
2024/01/16 13:10:31;;;;;;;14.98;6.22;;;;;;;;;;5099310;28;20043;-80
2024/01/16 13:13:16;;;;;;;14.02;5.40;;;;;;;;;;5102319;28;20075;-80
2024/01/16 13:15:43;;;;;;;13.43;5.82;;;;;;;;;;5100074;28;20052;-80
2024/01/16 13:18:20;;;;;;;11.95;6.35;;;;;;;;;;5103191;28;20063;-80
2024/01/16 13:20:46;;;;;;;13.88;6.95;;;;;;;;;;5108814;28;20044;-80
2024/01/16 13:23:15;;;;;;;13.38;6.38;;;;;;;;;;5103542;28;20054;-79
2024/01/16 13:25:45;;;;;;;15.63;6.82;;;;;;;;;;5119007;28;20051;-80
2024/01/16 13:28:11;;;;;;;15.48;6.95;;;;;;;;;;5118307;28;20426;-80
2024/01/16 13:30:38;;;;;;;10.88;6.15;;;;;;;;;;5102757;28;20157;-79
2024/01/16 13:33:04;;;;;;;14.23;6.20;;;;;;;;;;5097952;28;20070;-79
2024/01/16 13:35:31;;;;;;;14.25;6.43;;;;;;;;;;5099826;28;20051;-79
2024/01/16 13:37:58;;;;;;;13.95;6.18;;;;;;;;;;5100526;28;20046;-79
2024/01/16 13:40:24;;;;;;;12.45;5.78;;;;;;;;;;5100406;28;20170;-80
2024/01/16 13:42:50;;;;;;;15.23;6.43;;;;;;;;;;5098691;28;20040;-79
2024/01/16 13:45:18;;;;;;;12.77;6.25;;;;;;;;;;5098765;28;20092;-79
2024/01/16 13:47:44;;;;;;;11.93;6.20;;;;;;;;;;5113431;28;20198;-79
2024/01/16 13:50:10;;;;;;;27.15;17.33;;;;;;;;;;5117016;28;20047;-80
2024/01/16 13:52:36;;;;;;;18.98;12.40;;;;;;;;;;5114754;28;20082;-80
2024/01/16 13:55:05;;;;;;;15.95;8.23;;;;;;;;;;5099965;28;20048;-79
2024/01/16 13:57:36;;;;;;;15.82;8.70;;;;;;;;;;5096441;28;20051;-80
2024/01/16 14:00:07;;;;;;;12.65;6.97;;;;;;;;;;5096250;28;20087;-79
2024/01/16 14:02:38;;;;;;;14.52;7.28;;;;;;;;;;5097685;28;20041;-79
2024/01/16 14:05:05;;;;;;;;;;;;;;;;;;5096198;28;20051;-80
2024/01/16 14:07:32;;;;;;;16.92;7.25;;;;;;;;;;5102722;28;19949;-79
2024/01/16 14:09:58;;;;;;;14.27;5.80;;;;;;;;;;5112356;28;20051;-79
2024/01/16 14:12:24;;;;;;;14.40;6.25;;;;;;;;;;5116512;28;20054;-80
2024/01/16 14:14:51;;;;;;;12.35;7.20;;;;;;;;;;5114437;28;20191;-80
2024/01/16 14:17:17;;;;;;;17.20;7.95;;;;;;;;;;5109113;28;20059;-79
2024/01/16 14:19:43;;;;;;;16.00;8.13;;;;;;;;;;5097870;28;20135;-80
2024/01/16 14:22:09;;;;;;;15.23;7.93;;;;;;;;;;5097546;28;20357;-80
2024/01/16 14:24:37;;;;;;;15.90;7.55;;;;;;;;;;5109210;28;20047;-79
2024/01/16 14:27:04;;;;;;;14.75;8.10;;;;;;;;;;5119326;28;20487;-80
2024/01/16 14:29:30;;;;;;;10.52;5.60;;;;;;;;;;5109265;28;20068;-80
2024/01/16 14:31:56;;;;;;;13.73;5.65;;;;;;;;;;5116829;28;20071;-80